Time,TemperatureF,DewpointF,PressureIn,WindDirection,WindDirectionDegrees,WindSpeedMPH,WindSpeedGustMPH,Humidity,HourlyPrecipIn,Conditions,Clouds,dailyrainin,SoftwareType,DateUTC
2013-06-19 00:01:00,66.0,42.0,29.54,South,173,0.0,5.0,41,0.00,,,0.00,,2013-06-19 06:01:00,
2013-06-19 00:11:00,66.0,42.0,29.54,South,173,0.0,5.0,41,0.00,,,0.00,,2013-06-19 06:11:00,
2013-06-19 00:22:00,67.0,43.0,29.54,South,173,0.0,1.0,41,0.00,,,0.00,,2013-06-19 06:22:00,
2013-06-19 00:33:00,67.0,43.0,29.54,South,173,0.0,3.0,42,0.00,,,0.00,,2013-06-19 06:33:00,
2013-06-19 00:42:00,67.0,43.0,29.54,South,173,0.0,3.0,42,0.00,,,0.00,,2013-06-19 06:42:00,
2013-06-19 00:52:00,67.0,44.0,29.53,South,173,0.0,1.0,43,0.00,,,0.00,,2013-06-19 06:52:00,
2013-06-19 01:01:00,66.0,43.0,29.54,South,173,0.0,2.0,44,0.00,,,0.00,,2013-06-19 07:01:00,
2013-06-19 01:11:00,66.0,43.0,29.54,South,173,0.0,2.0,44,0.00,,,0.00,,2013-06-19 07:11:00,
2013-06-19 01:22:00,66.0,44.0,29.52,South,173,1.0,3.0,45,0.00,,,0.00,,2013-06-19 07:22:00,
2013-06-19 01:33:00,65.0,43.0,29.52,South,173,0.0,1.0,45,0.00,,,0.00,,2013-06-19 07:33:00,
2013-06-19 01:43:00,65.0,43.0,29.52,South,173,0.0,1.0,45,0.00,,,0.00,,2013-06-19 07:43:00,
2013-06-19 01:53:00,65.0,44.0,29.53,South,173,0.0,3.0,46,0.00,,,0.00,,2013-06-19 07:53:00,
2013-06-19 02:02:00,65.0,44.0,29.53,South,173,0.0,1.0,46,0.00,,,0.00,,2013-06-19 08:02:00,
2013-06-19 02:11:00,65.0,44.0,29.53,South,173,0.0,1.0,46,0.00,,,0.00,,2013-06-19 08:11:00,
2013-06-19 02:22:00,65.0,43.0,29.52,South,173,0.0,5.0,44,0.00,,,0.00,,2013-06-19 08:22:00,
2013-06-19 02:33:00,66.0,42.0,29.51,SSE,164,3.0,8.0,41,0.00,,,0.00,,2013-06-19 08:33:00,
2013-06-19 02:43:00,66.0,42.0,29.51,SSE,164,3.0,8.0,41,0.00,,,0.00,,2013-06-19 08:43:00,
2013-06-19 02:54:00,68.0,42.0,29.50,SSE,157,1.0,7.0,39,0.00,,,0.00,,2013-06-19 08:54:00,
2013-06-19 03:02:00,68.0,42.0,29.50,SSE,147,2.0,9.0,39,0.00,,,0.00,,2013-06-19 09:02:00,
2013-06-19 03:11:00,68.0,42.0,29.50,SSE,147,2.0,9.0,39,0.00,,,0.00,,2013-06-19 09:11:00,
2013-06-19 03:22:00,67.0,43.0,29.49,SSE,147,0.0,7.0,41,0.00,,,0.00,,2013-06-19 09:22:00,
2013-06-19 03:34:00,67.0,43.0,29.49,SSE,147,0.0,1.0,42,0.00,,,0.00,,2013-06-19 09:34:00,
2013-06-19 03:43:00,67.0,43.0,29.49,SSE,147,0.0,1.0,42,0.00,,,0.00,,2013-06-19 09:43:00,
2013-06-19 03:53:00,66.0,43.0,29.49,SSE,147,0.0,3.0,43,0.00,,,0.00,,2013-06-19 09:53:00,
2013-06-19 04:01:00,65.0,43.0,29.49,SSE,147,0.0,3.0,45,0.00,,,0.00,,2013-06-19 10:01:00,
2013-06-19 04:11:00,65.0,43.0,29.49,SSE,147,0.0,3.0,45,0.00,,,0.00,,2013-06-19 10:11:00,
2013-06-19 04:22:00,64.0,42.0,29.48,SSE,147,0.0,2.0,44,0.00,,,0.00,,2013-06-19 10:22:00,
2013-06-19 04:33:00,64.0,42.0,29.47,SSE,147,0.0,1.0,44,0.00,,,0.00,,2013-06-19 10:33:00,
2013-06-19 04:42:00,64.0,42.0,29.47,SSE,147,0.0,1.0,44,0.00,,,0.00,,2013-06-19 10:42:00,
2013-06-19 04:53:00,64.0,42.0,29.47,SSE,147,0.0,3.0,44,0.00,,,0.00,,2013-06-19 10:53:00,
2013-06-19 05:02:00,63.0,41.0,29.46,SSE,147,0.0,2.0,44,0.00,,,0.00,,2013-06-19 11:02:00,
2013-06-19 05:11:00,63.0,41.0,29.46,SSE,147,0.0,2.0,44,0.00,,,0.00,,2013-06-19 11:11:00,
2013-06-19 05:22:00,62.0,40.0,29.46,SSE,147,0.0,0.0,44,0.00,,,0.00,,2013-06-19 11:22:00,
2013-06-19 05:33:00,62.0,40.0,29.46,SSE,147,0.0,0.0,45,0.00,,,0.00,,2013-06-19 11:33:00,
2013-06-19 05:42:00,62.0,40.0,29.46,SSE,147,0.0,0.0,45,0.00,,,0.00,,2013-06-19 11:42:00,
2013-06-19 05:54:00,61.0,42.0,29.45,SSE,147,0.0,1.0,49,0.00,,,0.00,,2013-06-19 11:54:00,
2013-06-19 06:01:00,60.0,42.0,29.44,SSE,147,0.0,3.0,52,0.00,,,0.00,,2013-06-19 12:01:00,
2013-06-19 06:12:00,60.0,42.0,29.44,SSE,147,0.0,3.0,52,0.00,,,0.00,,2013-06-19 12:12:00,
2013-06-19 06:22:00,60.0,43.0,29.44,SSE,147,0.0,0.0,53,0.00,,,0.00,,2013-06-19 12:22:00,
2013-06-19 06:34:00,60.0,44.0,29.44,SSE,147,0.0,2.0,55,0.00,,,0.00,,2013-06-19 12:34:00,
2013-06-19 06:44:00,60.0,44.0,29.44,SSE,147,0.0,2.0,55,0.00,,,0.00,,2013-06-19 12:44:00,
2013-06-19 06:53:00,61.0,44.0,29.43,SSE,147,0.0,0.0,54,0.00,,,0.00,,2013-06-19 12:53:00,
2013-06-19 07:02:00,63.0,45.0,29.42,SSE,147,0.0,1.0,51,0.00,,,0.00,,2013-06-19 13:02:00,
2013-06-19 07:11:00,63.0,45.0,29.42,SSE,147,0.0,1.0,51,0.00,,,0.00,,2013-06-19 13:11:00,
2013-06-19 07:22:00,64.0,45.0,29.42,SSE,147,0.0,1.0,50,0.00,,,0.00,,2013-06-19 13:22:00,
2013-06-19 07:33:00,65.0,44.0,29.42,SSE,147,0.0,1.0,46,0.00,,,0.00,,2013-06-19 13:33:00,
2013-06-19 07:42:00,65.0,44.0,29.42,SSE,147,0.0,1.0,46,0.00,,,0.00,,2013-06-19 13:42:00,
2013-06-19 07:54:00,68.0,45.0,29.41,SSE,147,0.0,0.0,44,0.00,,,0.00,,2013-06-19 13:54:00,
2013-06-19 08:02:00,69.0,46.0,29.41,SSE,147,0.0,0.0,43,0.00,,,0.00,,2013-06-19 14:02:00,
2013-06-19 08:11:00,69.0,46.0,29.41,SSE,147,0.0,0.0,43,0.00,,,0.00,,2013-06-19 14:11:00,
2013-06-19 08:22:00,69.0,45.0,29.41,SSE,147,0.0,1.0,42,0.00,,,0.00,,2013-06-19 14:22:00,
2013-06-19 08:33:00,71.0,46.0,29.40,SSE,147,0.0,1.0,41,0.00,,,0.00,,2013-06-19 14:33:00,
2013-06-19 08:43:00,71.0,46.0,29.40,SSE,147,0.0,1.0,41,0.00,,,0.00,,2013-06-19 14:43:00,
2013-06-19 08:53:00,70.0,48.0,29.41,SSE,147,0.0,2.0,45,0.00,,,0.00,,2013-06-19 14:53:00,
2013-06-19 09:01:00,69.0,48.0,29.40,SSE,147,0.0,4.0,48,0.00,,,0.00,,2013-06-19 15:01:00,
2013-06-19 09:11:00,69.0,48.0,29.40,SSE,147,0.0,4.0,48,0.00,,,0.00,,2013-06-19 15:11:00,
2013-06-19 09:22:00,70.0,47.0,29.39,SSE,147,0.0,4.0,44,0.00,,,0.00,,2013-06-19 15:22:00,
2013-06-19 09:33:00,72.0,46.0,29.39,SSE,147,0.0,3.0,39,0.00,,,0.00,,2013-06-19 15:33:00,
2013-06-19 09:42:00,72.0,46.0,29.39,SSE,147,0.0,3.0,39,0.00,,,0.00,,2013-06-19 15:42:00,
2013-06-19 09:53:00,74.0,47.0,29.38,SSE,147,0.0,4.0,38,0.00,,,0.00,,2013-06-19 15:53:00,
2013-06-19 10:01:00,75.0,45.0,29.37,SSE,147,0.0,4.0,35,0.00,,,0.00,,2013-06-19 16:01:00,
2013-06-19 10:11:00,75.0,45.0,29.37,SSE,147,0.0,4.0,35,0.00,,,0.00,,2013-06-19 16:11:00,
2013-06-19 10:22:00,76.0,46.0,29.36,SSE,147,0.0,3.0,34,0.00,,,0.00,,2013-06-19 16:22:00,
2013-06-19 10:33:00,78.0,47.0,29.36,SSE,147,0.0,3.0,34,0.00,,,0.00,,2013-06-19 16:33:00,
2013-06-19 10:43:00,78.0,47.0,29.36,SSE,147,0.0,3.0,34,0.00,,,0.00,,2013-06-19 16:43:00,
2013-06-19 10:53:00,80.0,43.0,29.35,SSE,147,1.0,8.0,27,0.00,,,0.00,,2013-06-19 16:53:00,
2013-06-19 11:02:00,81.0,44.0,29.35,SE,144,1.0,8.0,27,0.00,,,0.00,,2013-06-19 17:02:00,
2013-06-19 11:11:00,81.0,44.0,29.35,SE,144,1.0,8.0,27,0.00,,,0.00,,2013-06-19 17:11:00,
2013-06-19 11:22:00,82.0,43.0,29.34,SE,138,5.0,12.0,25,0.00,,,0.00,,2013-06-19 17:22:00,
2013-06-19 11:34:00,81.0,42.0,29.34,SE,131,5.0,13.0,25,0.00,,,0.00,,2013-06-19 17:34:00,
2013-06-19 11:43:00,81.0,42.0,29.34,SE,131,5.0,13.0,25,0.00,,,0.00,,2013-06-19 17:43:00,
2013-06-19 11:53:00,82.0,42.0,29.34,SE,124,4.0,13.0,24,0.00,,,0.00,,2013-06-19 17:53:00,
2013-06-19 12:01:00,83.0,41.0,29.33,SE,128,1.0,9.0,23,0.00,,,0.00,,2013-06-19 18:01:00,
2013-06-19 12:11:00,83.0,41.0,29.33,SE,128,1.0,9.0,23,0.00,,,0.00,,2013-06-19 18:11:00,
2013-06-19 12:24:00,84.0,40.0,29.32,SE,139,10.0,21.0,21,0.00,,,0.00,,2013-06-19 18:24:00,
2013-06-19 12:33:00,85.0,41.0,29.31,ESE,120,6.0,11.0,21,0.00,,,0.00,,2013-06-19 18:33:00,
2013-06-19 12:44:00,85.0,41.0,29.31,ESE,120,6.0,11.0,21,0.00,,,0.00,,2013-06-19 18:44:00,
2013-06-19 12:53:00,86.0,41.0,29.30,SE,137,11.0,21.0,21,0.00,,,0.00,,2013-06-19 18:53:00,
2013-06-19 13:01:00,86.0,40.0,29.29,SSE,159,7.0,24.0,20,0.00,,,0.00,,2013-06-19 19:01:00,
2013-06-19 13:11:00,86.0,40.0,29.29,SSE,159,7.0,24.0,20,0.00,,,0.00,,2013-06-19 19:11:00,
2013-06-19 13:22:00,88.0,39.0,29.28,SSE,155,4.0,10.0,18,0.00,,,0.00,,2013-06-19 19:22:00,
2013-06-19 13:32:00,88.0,38.0,29.27,South,177,9.0,17.0,17,0.00,,,0.00,,2013-06-19 19:32:00,
2013-06-19 13:43:00,88.0,38.0,29.27,South,177,9.0,17.0,17,0.00,,,0.00,,2013-06-19 19:43:00,
2013-06-19 14:02:00,90.0,36.0,29.25,SSE,161,9.0,18.0,15,0.00,,,0.00,,2013-06-19 20:02:00,
2013-06-19 14:11:00,90.0,36.0,29.25,SSE,161,9.0,18.0,15,0.00,,,0.00,,2013-06-19 20:11:00,
2013-06-19 14:22:00,91.0,33.0,29.24,SSE,149,10.0,19.0,13,0.00,,,0.00,,2013-06-19 20:22:00,
2013-06-19 14:42:00,91.0,31.0,29.23,SE,145,9.0,27.0,12,0.00,,,0.00,,2013-06-19 20:42:00,
2013-06-19 15:33:00,92.0,22.0,29.22,SE,133,10.0,21.0,8,0.00,,,0.00,,2013-06-19 21:33:00,
2013-06-19 15:44:00,92.0,22.0,29.22,SE,133,10.0,21.0,8,0.00,,,0.00,,2013-06-19 21:44:00,
2013-06-19 15:52:00,92.0,22.0,29.21,ESE,120,10.0,23.0,8,0.00,,,0.00,,2013-06-19 21:52:00,
2013-06-19 16:01:00,93.0,23.0,29.21,SSW,192,10.0,24.0,8,0.00,,,0.00,,2013-06-19 22:01:00,
2013-06-19 16:11:00,93.0,23.0,29.21,SSW,192,10.0,24.0,8,0.00,,,0.00,,2013-06-19 22:11:00,
2013-06-19 16:22:00,93.0,23.0,29.21,South,169,9.0,20.0,8,0.00,,,0.00,,2013-06-19 22:22:00,
2013-06-19 16:34:00,93.0,23.0,29.21,South,181,13.0,32.0,8,0.00,,,0.00,,2013-06-19 22:34:00,
2013-06-19 16:43:00,93.0,23.0,29.21,South,181,13.0,32.0,8,0.00,,,0.00,,2013-06-19 22:43:00,
2013-06-19 16:53:00,93.0,26.0,29.20,South,184,10.0,24.0,9,0.00,,,0.00,,2013-06-19 22:53:00,
2013-06-19 17:02:00,91.0,24.0,29.21,SSE,167,11.0,20.0,9,0.00,,,0.00,,2013-06-19 23:02:00,
2013-06-19 17:12:00,91.0,24.0,29.21,SSE,167,11.0,20.0,9,0.00,,,0.00,,2013-06-19 23:12:00,
2013-06-19 17:23:00,91.0,24.0,29.20,SSE,161,7.0,14.0,9,0.00,,,0.00,,2013-06-19 23:23:00,
2013-06-19 17:33:00,92.0,22.0,29.20,SW,226,7.0,22.0,8,0.00,,,0.00,,2013-06-19 23:33:00,
2013-06-19 17:43:00,92.0,22.0,29.20,SW,226,7.0,22.0,8,0.00,,,0.00,,2013-06-19 23:43:00,
2013-06-19 17:52:00,92.0,25.0,29.20,SSW,209,10.0,21.0,9,0.00,,,0.00,,2013-06-19 23:52:00,
2013-06-19 18:01:00,92.0,22.0,29.20,South,181,10.0,17.0,8,0.00,,,0.00,,2013-06-20 00:01:00,
2013-06-19 18:12:00,92.0,22.0,29.20,South,181,10.0,17.0,8,0.00,,,0.00,,2013-06-20 00:12:00,
2013-06-19 18:22:00,91.0,27.0,29.20,SSW,201,4.0,15.0,10,0.00,,,0.00,,2013-06-20 00:22:00,
2013-06-19 18:33:00,91.0,29.0,29.20,SSW,196,3.0,9.0,11,0.00,,,0.00,,2013-06-20 00:33:00,
2013-06-19 18:44:00,91.0,29.0,29.20,SSW,196,3.0,9.0,11,0.00,,,0.00,,2013-06-20 00:44:00,
2013-06-19 18:52:00,91.0,24.0,29.21,West,268,12.0,25.0,9,0.00,,,0.00,,2013-06-20 00:52:00,
2013-06-19 19:02:00,90.0,31.0,29.21,SW,234,9.0,20.0,12,0.00,,,0.00,,2013-06-20 01:02:00,
2013-06-19 19:11:00,90.0,31.0,29.21,SW,234,9.0,20.0,12,0.00,,,0.00,,2013-06-20 01:11:00,
2013-06-19 19:22:00,90.0,31.0,29.21,SW,234,9.0,20.0,12,0.00,,,0.00,,2013-06-20 01:22:00,
2013-06-19 19:33:00,88.0,27.0,29.23,SW,224,14.0,27.0,11,0.00,,,0.00,,2013-06-20 01:33:00,
2013-06-19 19:44:00,88.0,27.0,29.23,SW,224,14.0,27.0,11,0.00,,,0.00,,2013-06-20 01:44:00,
2013-06-19 19:52:00,87.0,34.0,29.25,West,263,18.0,29.0,15,0.00,,,0.00,,2013-06-20 01:52:00,
2013-06-19 20:02:00,84.0,34.0,29.28,WSW,255,17.0,32.0,17,0.00,,,0.00,,2013-06-20 02:02:00,
2013-06-19 20:11:00,84.0,34.0,29.28,WSW,255,17.0,32.0,17,0.00,,,0.00,,2013-06-20 02:11:00,
2013-06-19 20:24:00,82.0,36.0,29.29,West,264,22.0,36.0,19,0.00,,,0.00,,2013-06-20 02:24:00,
2013-06-19 20:33:00,80.0,35.0,29.31,SW,233,14.0,27.0,20,0.00,,,0.00,,2013-06-20 02:33:00,
2013-06-19 20:43:00,80.0,35.0,29.31,SW,233,14.0,27.0,20,0.00,,,0.00,,2013-06-20 02:43:00,
2013-06-19 20:52:00,78.0,36.0,29.32,WSW,257,15.0,28.0,22,0.00,,,0.00,,2013-06-20 02:52:00,
2013-06-19 21:02:00,77.0,36.0,29.34,West,280,6.0,15.0,23,0.00,,,0.00,,2013-06-20 03:02:00,
2013-06-19 21:54:00,75.0,34.0,29.39,SW,236,7.0,17.0,22,0.00,,,0.00,,2013-06-20 03:54:00,
2013-06-19 22:01:00,74.0,33.0,29.41,WSW,243,0.0,3.0,22,0.00,,,0.00,,2013-06-20 04:01:00,
2013-06-19 22:11:00,74.0,33.0,29.41,WSW,243,0.0,3.0,22,0.00,,,0.00,,2013-06-20 04:11:00,
2013-06-19 22:22:00,74.0,34.0,29.43,WSW,250,0.0,3.0,23,0.00,,,0.00,,2013-06-20 04:22:00,
2013-06-19 22:33:00,74.0,29.0,29.44,WSW,250,0.0,3.0,19,0.00,,,0.00,,2013-06-20 04:33:00,
2013-06-19 22:43:00,74.0,29.0,29.44,WSW,250,0.0,3.0,19,0.00,,,0.00,,2013-06-20 04:43:00,
2013-06-19 22:54:00,73.0,30.0,29.44,WSW,250,1.0,8.0,20,0.00,,,0.00,,2013-06-20 04:54:00,
2013-06-19 23:02:00,72.0,30.0,29.44,WSW,250,2.0,5.0,21,0.00,,,0.00,,2013-06-20 05:02:00,
2013-06-19 23:12:00,72.0,30.0,29.44,WSW,250,2.0,5.0,21,0.00,,,0.00,,2013-06-20 05:12:00,
2013-06-19 23:22:00,72.0,29.0,29.46,WSW,250,0.0,6.0,20,0.00,,,0.00,,2013-06-20 05:22:00,
2013-06-19 23:33:00,71.0,30.0,29.47,WSW,250,0.0,10.0,22,0.00,,,0.00,,2013-06-20 05:33:00,
2013-06-19 23:44:00,71.0,30.0,29.47,WSW,250,0.0,10.0,22,0.00,,,0.00,,2013-06-20 05:44:00,
2013-06-19 23:53:00,69.0,32.0,29.48,WSW,250,0.0,4.0,25,0.00,,,0.00,,2013-06-20 05:53:00,